sensor_id;sensor_type;location;lat;lon;timestamp;P1;durP1;ratioP1;P2;durP2;ratioP2
2728;SDS011;1372;47.956;7.830;2023-02-28T00:00:33;3.40;;;2.60;;
2728;SDS011;1372;47.956;7.830;2023-02-28T00:03:03;2.53;;;2.33;;
2728;SDS011;1372;47.956;7.830;2023-02-28T00:05:32;1.90;;;1.80;;
2728;SDS011;1372;47.956;7.830;2023-02-28T00:08:03;2.80;;;2.50;;
2728;SDS011;1372;47.956;7.830;2023-02-28T00:10:34;3.00;;;2.80;;
2728;SDS011;1372;47.956;7.830;2023-02-28T00:13:04;4.30;;;2.50;;
2728;SDS011;1372;47.956;7.830;2023-02-28T00:15:34;2.90;;;2.43;;
2728;SDS011;1372;47.956;7.830;2023-02-28T00:18:03;2.73;;;2.53;;
2728;SDS011;1372;47.956;7.830;2023-02-28T00:20:34;2.77;;;2.43;;
2728;SDS011;1372;47.956;7.830;2023-02-28T00:23:04;2.60;;;2.40;;
2728;SDS011;1372;47.956;7.830;2023-02-28T00:25:32;2.80;;;2.60;;
2728;SDS011;1372;47.956;7.830;2023-02-28T00:28:01;5.37;;;3.03;;
2728;SDS011;1372;47.956;7.830;2023-02-28T00:30:30;2.63;;;2.43;;
2728;SDS011;1372;47.956;7.830;2023-02-28T00:32:58;4.00;;;3.00;;
2728;SDS011;1372;47.956;7.830;2023-02-28T00:35:27;2.67;;;2.53;;
2728;SDS011;1372;47.956;7.830;2023-02-28T00:37:56;2.90;;;2.60;;
2728;SDS011;1372;47.956;7.830;2023-02-28T00:40:26;2.53;;;2.30;;
2728;SDS011;1372;47.956;7.830;2023-02-28T00:42:55;3.50;;;2.50;;
2728;SDS011;1372;47.956;7.830;2023-02-28T00:45:23;4.17;;;2.80;;
2728;SDS011;1372;47.956;7.830;2023-02-28T00:47:52;2.60;;;2.40;;
2728;SDS011;1372;47.956;7.830;2023-02-28T00:50:21;6.50;;;3.60;;
2728;SDS011;1372;47.956;7.830;2023-02-28T00:52:49;2.80;;;2.50;;
2728;SDS011;1372;47.956;7.830;2023-02-28T00:55:18;4.53;;;2.93;;
2728;SDS011;1372;47.956;7.830;2023-02-28T00:57:48;3.23;;;2.80;;
2728;SDS011;1372;47.956;7.830;2023-02-28T01:00:17;4.07;;;3.10;;
2728;SDS011;1372;47.956;7.830;2023-02-28T01:02:47;3.77;;;3.20;;
2728;SDS011;1372;47.956;7.830;2023-02-28T01:05:16;2.70;;;2.47;;
2728;SDS011;1372;47.956;7.830;2023-02-28T01:07:47;2.70;;;2.50;;
2728;SDS011;1372;47.956;7.830;2023-02-28T01:10:16;3.43;;;2.73;;
2728;SDS011;1372;47.956;7.830;2023-02-28T01:12:44;3.67;;;3.00;;
2728;SDS011;1372;47.956;7.830;2023-02-28T01:15:15;4.87;;;2.93;;
2728;SDS011;1372;47.956;7.830;2023-02-28T01:17:44;4.00;;;3.60;;
2728;SDS011;1372;47.956;7.830;2023-02-28T01:20:13;3.83;;;3.53;;
2728;SDS011;1372;47.956;7.830;2023-02-28T01:22:42;3.83;;;3.03;;
2728;SDS011;1372;47.956;7.830;2023-02-28T01:25:10;4.73;;;3.27;;
2728;SDS011;1372;47.956;7.830;2023-02-28T01:27:39;4.00;;;3.60;;
2728;SDS011;1372;47.956;7.830;2023-02-28T01:30:08;4.73;;;2.93;;
2728;SDS011;1372;47.956;7.830;2023-02-28T01:32:40;3.83;;;3.37;;
2728;SDS011;1372;47.956;7.830;2023-02-28T01:35:08;2.97;;;2.77;;
2728;SDS011;1372;47.956;7.830;2023-02-28T01:37:37;2.80;;;2.60;;
2728;SDS011;1372;47.956;7.830;2023-02-28T01:40:07;3.13;;;2.67;;
2728;SDS011;1372;47.956;7.830;2023-02-28T01:42:36;3.33;;;3.03;;
2728;SDS011;1372;47.956;7.830;2023-02-28T01:45:18;3.57;;;3.00;;
2728;SDS011;1372;47.956;7.830;2023-02-28T01:47:54;3.30;;;3.00;;
2728;SDS011;1372;47.956;7.830;2023-02-28T01:50:31;2.87;;;2.63;;
2728;SDS011;1372;47.956;7.830;2023-02-28T01:53:04;2.93;;;2.73;;
2728;SDS011;1372;47.956;7.830;2023-02-28T01:55:38;2.80;;;2.60;;
2728;SDS011;1372;47.956;7.830;2023-02-28T01:58:09;3.33;;;3.00;;
2728;SDS011;1372;47.956;7.830;2023-02-28T02:00:38;3.37;;;3.07;;
2728;SDS011;1372;47.956;7.830;2023-02-28T02:03:11;4.33;;;3.40;;
2728;SDS011;1372;47.956;7.830;2023-02-28T02:05:48;4.80;;;2.97;;
2728;SDS011;1372;47.956;7.830;2023-02-28T02:08:17;3.03;;;2.73;;
2728;SDS011;1372;47.956;7.830;2023-02-28T02:10:51;3.77;;;3.43;;
2728;SDS011;1372;47.956;7.830;2023-02-28T02:13:26;3.50;;;3.20;;
2728;SDS011;1372;47.956;7.830;2023-02-28T02:16:13;2.83;;;2.63;;
2728;SDS011;1372;47.956;7.830;2023-02-28T02:19:01;3.47;;;3.10;;
2728;SDS011;1372;47.956;7.830;2023-02-28T02:21:57;4.10;;;3.40;;
2728;SDS011;1372;47.956;7.830;2023-02-28T02:25:00;3.10;;;2.90;;
2728;SDS011;1372;47.956;7.830;2023-02-28T02:31:20;3.30;;;2.90;;
2728;SDS011;1372;47.956;7.830;2023-02-28T02:34:28;3.63;;;2.93;;
2728;SDS011;1372;47.956;7.830;2023-02-28T02:37:24;3.03;;;2.83;;
2728;SDS011;1372;47.956;7.830;2023-02-28T02:40:00;4.50;;;3.57;;
2728;SDS011;1372;47.956;7.830;2023-02-28T02:42:39;2.80;;;2.60;;
2728;SDS011;1372;47.956;7.830;2023-02-28T02:45:17;5.20;;;3.20;;
2728;SDS011;1372;47.956;7.830;2023-02-28T02:47:51;3.17;;;2.80;;
2728;SDS011;1372;47.956;7.830;2023-02-28T02:50:26;3.57;;;3.27;;
2728;SDS011;1372;47.956;7.830;2023-02-28T02:53:00;2.77;;;2.57;;
2728;SDS011;1372;47.956;7.830;2023-02-28T02:55:34;5.20;;;3.20;;
2728;SDS011;1372;47.956;7.830;2023-02-28T02:58:09;4.37;;;2.73;;
2728;SDS011;1372;47.956;7.830;2023-02-28T03:00:43;4.30;;;3.00;;
2728;SDS011;1372;47.956;7.830;2023-02-28T03:03:16;2.77;;;2.57;;
2728;SDS011;1372;47.956;7.830;2023-02-28T03:05:57;5.23;;;3.10;;
2728;SDS011;1372;47.956;7.830;2023-02-28T03:08:28;3.33;;;3.03;;
2728;SDS011;1372;47.956;7.830;2023-02-28T03:11:03;3.17;;;2.90;;
2728;SDS011;1372;47.956;7.830;2023-02-28T03:16:49;2.90;;;2.70;;
2728;SDS011;1372;47.956;7.830;2023-02-28T03:19:38;3.43;;;3.13;;
2728;SDS011;1372;47.956;7.830;2023-02-28T03:22:22;3.23;;;2.93;;
2728;SDS011;1372;47.956;7.830;2023-02-28T03:25:05;3.10;;;2.30;;
2728;SDS011;1372;47.956;7.830;2023-02-28T03:27:38;3.30;;;2.97;;
2728;SDS011;1372;47.956;7.830;2023-02-28T03:30:10;4.43;;;2.93;;
2728;SDS011;1372;47.956;7.830;2023-02-28T03:32:46;2.93;;;2.73;;
2728;SDS011;1372;47.956;7.830;2023-02-28T03:35:25;3.63;;;2.97;;
2728;SDS011;1372;47.956;7.830;2023-02-28T03:38:01;3.90;;;3.20;;
2728;SDS011;1372;47.956;7.830;2023-02-28T03:40:39;2.73;;;2.50;;
2728;SDS011;1372;47.956;7.830;2023-02-28T03:43:15;3.17;;;2.60;;
2728;SDS011;1372;47.956;7.830;2023-02-28T03:45:49;2.70;;;2.37;;
2728;SDS011;1372;47.956;7.830;2023-02-28T03:48:21;3.20;;;3.00;;
2728;SDS011;1372;47.956;7.830;2023-02-28T03:50:57;4.50;;;3.10;;
2728;SDS011;1372;47.956;7.830;2023-02-28T03:53:30;2.80;;;2.60;;
2728;SDS011;1372;47.956;7.830;2023-02-28T03:56:05;3.10;;;2.83;;
2728;SDS011;1372;47.956;7.830;2023-02-28T03:58:40;4.50;;;3.10;;
2728;SDS011;1372;47.956;7.830;2023-02-28T04:01:17;4.10;;;3.70;;
2728;SDS011;1372;47.956;7.830;2023-02-28T04:03:49;3.33;;;3.03;;
2728;SDS011;1372;47.956;7.830;2023-02-28T04:06:19;2.87;;;2.67;;
2728;SDS011;1372;47.956;7.830;2023-02-28T04:08:51;3.20;;;2.87;;
2728;SDS011;1372;47.956;7.830;2023-02-28T04:11:22;3.17;;;2.67;;
2728;SDS011;1372;47.956;7.830;2023-02-28T04:13:57;3.33;;;2.97;;
2728;SDS011;1372;47.956;7.830;2023-02-28T04:16:26;3.77;;;3.47;;
2728;SDS011;1372;47.956;7.830;2023-02-28T04:19:01;3.40;;;3.10;;
2728;SDS011;1372;47.956;7.830;2023-02-28T04:21:33;3.57;;;3.23;;
2728;SDS011;1372;47.956;7.830;2023-02-28T04:24:06;3.20;;;2.90;;
2728;SDS011;1372;47.956;7.830;2023-02-28T04:26:41;3.80;;;3.40;;
2728;SDS011;1372;47.956;7.830;2023-02-28T04:29:18;3.50;;;3.20;;
2728;SDS011;1372;47.956;7.830;2023-02-28T04:31:49;3.40;;;3.10;;
2728;SDS011;1372;47.956;7.830;2023-02-28T04:34:19;4.67;;;3.47;;
2728;SDS011;1372;47.956;7.830;2023-02-28T04:36:50;6.10;;;3.80;;
2728;SDS011;1372;47.956;7.830;2023-02-28T04:39:39;4.23;;;3.63;;
2728;SDS011;1372;47.956;7.830;2023-02-28T04:42:09;6.10;;;3.10;;
2728;SDS011;1372;47.956;7.830;2023-02-28T04:44:39;5.00;;;4.03;;
2728;SDS011;1372;47.956;7.830;2023-02-28T04:47:07;3.63;;;3.33;;
2728;SDS011;1372;47.956;7.830;2023-02-28T04:49:36;3.70;;;3.37;;
2728;SDS011;1372;47.956;7.830;2023-02-28T04:52:05;4.80;;;3.30;;
2728;SDS011;1372;47.956;7.830;2023-02-28T04:54:36;3.77;;;3.40;;
2728;SDS011;1372;47.956;7.830;2023-02-28T04:57:07;3.53;;;3.23;;
2728;SDS011;1372;47.956;7.830;2023-02-28T04:59:36;3.83;;;3.43;;
2728;SDS011;1372;47.956;7.830;2023-02-28T05:02:04;4.93;;;2.97;;
2728;SDS011;1372;47.956;7.830;2023-02-28T05:04:34;3.83;;;3.47;;
2728;SDS011;1372;47.956;7.830;2023-02-28T05:07:03;4.37;;;3.97;;
2728;SDS011;1372;47.956;7.830;2023-02-28T05:09:32;4.03;;;2.90;;
2728;SDS011;1372;47.956;7.830;2023-02-28T05:12:03;3.47;;;3.17;;
2728;SDS011;1372;47.956;7.830;2023-02-28T05:14:31;4.83;;;3.50;;
2728;SDS011;1372;47.956;7.830;2023-02-28T05:17:00;7.60;;;3.20;;
2728;SDS011;1372;47.956;7.830;2023-02-28T05:19:29;4.30;;;3.90;;
2728;SDS011;1372;47.956;7.830;2023-02-28T05:21:58;3.80;;;3.40;;
2728;SDS011;1372;47.956;7.830;2023-02-28T05:24:26;3.87;;;3.40;;
2728;SDS011;1372;47.956;7.830;2023-02-28T05:26:55;4.40;;;3.87;;
2728;SDS011;1372;47.956;7.830;2023-02-28T05:29:26;3.40;;;3.10;;
2728;SDS011;1372;47.956;7.830;2023-02-28T05:31:55;3.90;;;3.50;;
2728;SDS011;1372;47.956;7.830;2023-02-28T05:34:26;5.30;;;3.30;;
2728;SDS011;1372;47.956;7.830;2023-02-28T05:36:55;3.33;;;3.03;;
2728;SDS011;1372;47.956;7.830;2023-02-28T05:39:24;3.70;;;3.30;;
2728;SDS011;1372;47.956;7.830;2023-02-28T05:41:53;4.90;;;3.63;;
2728;SDS011;1372;47.956;7.830;2023-02-28T05:44:21;4.80;;;3.90;;
2728;SDS011;1372;47.956;7.830;2023-02-28T05:46:52;4.17;;;3.70;;
2728;SDS011;1372;47.956;7.830;2023-02-28T05:49:20;5.07;;;3.93;;
2728;SDS011;1372;47.956;7.830;2023-02-28T05:51:50;4.93;;;4.03;;
2728;SDS011;1372;47.956;7.830;2023-02-28T05:54:18;5.53;;;3.90;;
2728;SDS011;1372;47.956;7.830;2023-02-28T05:56:49;4.83;;;3.60;;
2728;SDS011;1372;47.956;7.830;2023-02-28T05:59:18;6.03;;;3.43;;
2728;SDS011;1372;47.956;7.830;2023-02-28T06:01:47;4.33;;;3.97;;
2728;SDS011;1372;47.956;7.830;2023-02-28T06:04:17;3.80;;;3.50;;
2728;SDS011;1372;47.956;7.830;2023-02-28T06:06:57;4.57;;;3.67;;
2728;SDS011;1372;47.956;7.830;2023-02-28T06:09:26;4.40;;;4.00;;
2728;SDS011;1372;47.956;7.830;2023-02-28T06:11:57;3.60;;;3.30;;
2728;SDS011;1372;47.956;7.830;2023-02-28T06:14:26;4.60;;;4.20;;
2728;SDS011;1372;47.956;7.830;2023-02-28T06:16:55;4.63;;;4.23;;
2728;SDS011;1372;47.956;7.830;2023-02-28T06:19:28;4.50;;;4.10;;
2728;SDS011;1372;47.956;7.830;2023-02-28T06:21:57;9.60;;;3.83;;
2728;SDS011;1372;47.956;7.830;2023-02-28T06:24:26;3.80;;;3.50;;
2728;SDS011;1372;47.956;7.830;2023-02-28T06:26:55;4.80;;;4.40;;
2728;SDS011;1372;47.956;7.830;2023-02-28T06:29:25;4.87;;;4.20;;
2728;SDS011;1372;47.956;7.830;2023-02-28T06:31:54;3.80;;;3.50;;
2728;SDS011;1372;47.956;7.830;2023-02-28T06:34:23;5.00;;;4.20;;
2728;SDS011;1372;47.956;7.830;2023-02-28T06:36:53;4.70;;;3.97;;
2728;SDS011;1372;47.956;7.830;2023-02-28T06:39:22;4.90;;;4.40;;
2728;SDS011;1372;47.956;7.830;2023-02-28T06:41:50;4.33;;;3.90;;
2728;SDS011;1372;47.956;7.830;2023-02-28T06:44:22;4.73;;;4.00;;
2728;SDS011;1372;47.956;7.830;2023-02-28T06:46:51;4.40;;;3.90;;
2728;SDS011;1372;47.956;7.830;2023-02-28T06:49:21;4.60;;;4.20;;
2728;SDS011;1372;47.956;7.830;2023-02-28T06:51:49;4.80;;;4.13;;
2728;SDS011;1372;47.956;7.830;2023-02-28T06:54:20;4.83;;;4.07;;
2728;SDS011;1372;47.956;7.830;2023-02-28T06:56:48;3.50;;;3.20;;
2728;SDS011;1372;47.956;7.830;2023-02-28T06:59:20;4.83;;;4.33;;
2728;SDS011;1372;47.956;7.830;2023-02-28T07:01:51;5.10;;;3.77;;
2728;SDS011;1372;47.956;7.830;2023-02-28T07:04:21;5.27;;;4.70;;
2728;SDS011;1372;47.956;7.830;2023-02-28T07:06:50;4.40;;;3.50;;
2728;SDS011;1372;47.956;7.830;2023-02-28T07:09:21;4.63;;;3.90;;
2728;SDS011;1372;47.956;7.830;2023-02-28T07:11:50;4.23;;;3.93;;
2728;SDS011;1372;47.956;7.830;2023-02-28T07:14:19;5.33;;;4.47;;
2728;SDS011;1372;47.956;7.830;2023-02-28T07:16:48;4.63;;;4.10;;
2728;SDS011;1372;47.956;7.830;2023-02-28T07:19:17;4.97;;;4.50;;
2728;SDS011;1372;47.956;7.830;2023-02-28T07:21:46;5.40;;;4.83;;
2728;SDS011;1372;47.956;7.830;2023-02-28T07:24:14;4.40;;;3.87;;
2728;SDS011;1372;47.956;7.830;2023-02-28T07:26:46;6.13;;;4.43;;
2728;SDS011;1372;47.956;7.830;2023-02-28T07:29:14;5.30;;;4.50;;
2728;SDS011;1372;47.956;7.830;2023-02-28T07:31:43;4.73;;;4.00;;
2728;SDS011;1372;47.956;7.830;2023-02-28T07:34:13;5.40;;;4.37;;
2728;SDS011;1372;47.956;7.830;2023-02-28T07:36:42;4.70;;;4.30;;
2728;SDS011;1372;47.956;7.830;2023-02-28T07:39:10;6.20;;;4.60;;
2728;SDS011;1372;47.956;7.830;2023-02-28T07:41:39;4.83;;;4.40;;
2728;SDS011;1372;47.956;7.830;2023-02-28T07:44:11;5.77;;;4.80;;
2728;SDS011;1372;47.956;7.830;2023-02-28T07:46:42;5.60;;;4.43;;
2728;SDS011;1372;47.956;7.830;2023-02-28T07:49:11;4.10;;;3.80;;
2728;SDS011;1372;47.956;7.830;2023-02-28T07:51:40;5.60;;;4.60;;
2728;SDS011;1372;47.956;7.830;2023-02-28T07:54:08;9.47;;;4.50;;
2728;SDS011;1372;47.956;7.830;2023-02-28T07:56:39;5.10;;;4.60;;
2728;SDS011;1372;47.956;7.830;2023-02-28T07:59:09;5.47;;;4.23;;
2728;SDS011;1372;47.956;7.830;2023-02-28T08:01:39;7.87;;;4.73;;
2728;SDS011;1372;47.956;7.830;2023-02-28T08:04:09;5.13;;;4.67;;
2728;SDS011;1372;47.956;7.830;2023-02-28T08:06:38;5.60;;;4.60;;
2728;SDS011;1372;47.956;7.830;2023-02-28T08:09:06;12.50;;;6.77;;
2728;SDS011;1372;47.956;7.830;2023-02-28T08:11:38;8.27;;;4.93;;
2728;SDS011;1372;47.956;7.830;2023-02-28T09:09:26;5.80;;;5.07;;
2728;SDS011;1372;47.956;7.830;2023-02-28T09:11:55;6.60;;;4.97;;
2728;SDS011;1372;47.956;7.830;2023-02-28T09:14:25;7.27;;;6.57;;
2728;SDS011;1372;47.956;7.830;2023-02-28T09:16:54;6.73;;;4.93;;
2728;SDS011;1372;47.956;7.830;2023-02-28T09:19:23;5.60;;;4.73;;
2728;SDS011;1372;47.956;7.830;2023-02-28T09:21:52;6.77;;;5.90;;
2728;SDS011;1372;47.956;7.830;2023-02-28T09:24:21;6.17;;;5.20;;
2728;SDS011;1372;47.956;7.830;2023-02-28T09:26:51;6.87;;;5.57;;
2728;SDS011;1372;47.956;7.830;2023-02-28T09:29:32;8.40;;;5.40;;
2728;SDS011;1372;47.956;7.830;2023-02-28T09:32:02;5.90;;;5.03;;
2728;SDS011;1372;47.956;7.830;2023-02-28T09:34:32;6.90;;;5.30;;
2728;SDS011;1372;47.956;7.830;2023-02-28T09:37:03;7.27;;;5.17;;
2728;SDS011;1372;47.956;7.830;2023-02-28T09:39:32;5.63;;;4.60;;
2728;SDS011;1372;47.956;7.830;2023-02-28T09:42:02;5.50;;;4.97;;
2728;SDS011;1372;47.956;7.830;2023-02-28T09:44:35;5.87;;;5.07;;
2728;SDS011;1372;47.956;7.830;2023-02-28T09:47:11;6.60;;;5.90;;
2728;SDS011;1372;47.956;7.830;2023-02-28T09:49:55;6.10;;;5.50;;
2728;SDS011;1372;47.956;7.830;2023-02-28T09:52:28;6.47;;;4.90;;
2728;SDS011;1372;47.956;7.830;2023-02-28T09:55:18;6.47;;;5.23;;
2728;SDS011;1372;47.956;7.830;2023-02-28T09:57:51;6.07;;;5.10;;
2728;SDS011;1372;47.956;7.830;2023-02-28T10:00:20;6.80;;;5.30;;
2728;SDS011;1372;47.956;7.830;2023-02-28T10:03:03;4.70;;;4.30;;
2728;SDS011;1372;47.956;7.830;2023-02-28T10:05:57;6.20;;;5.60;;
2728;SDS011;1372;47.956;7.830;2023-02-28T10:08:34;33.50;;;17.20;;
2728;SDS011;1372;47.956;7.830;2023-02-28T10:11:10;8.60;;;5.43;;
2728;SDS011;1372;47.956;7.830;2023-02-28T10:13:48;7.23;;;6.10;;
2728;SDS011;1372;47.956;7.830;2023-02-28T10:16:24;7.13;;;4.93;;
2728;SDS011;1372;47.956;7.830;2023-02-28T10:18:59;9.70;;;5.50;;
2728;SDS011;1372;47.956;7.830;2023-02-28T10:21:34;6.43;;;5.20;;
2728;SDS011;1372;47.956;7.830;2023-02-28T10:24:13;6.87;;;4.93;;
2728;SDS011;1372;47.956;7.830;2023-02-28T10:26:49;6.33;;;4.93;;
2728;SDS011;1372;47.956;7.830;2023-02-28T10:29:31;6.53;;;4.93;;
2728;SDS011;1372;47.956;7.830;2023-02-28T10:32:02;5.70;;;5.20;;
2728;SDS011;1372;47.956;7.830;2023-02-28T10:34:32;5.40;;;4.60;;
2728;SDS011;1372;47.956;7.830;2023-02-28T10:37:00;5.40;;;4.90;;
2728;SDS011;1372;47.956;7.830;2023-02-28T10:39:35;5.50;;;5.00;;
2728;SDS011;1372;47.956;7.830;2023-02-28T10:42:18;5.90;;;4.67;;
2728;SDS011;1372;47.956;7.830;2023-02-28T10:45:09;5.23;;;4.73;;
2728;SDS011;1372;47.956;7.830;2023-02-28T10:47:42;6.17;;;5.10;;
2728;SDS011;1372;47.956;7.830;2023-02-28T10:50:28;5.33;;;4.83;;
2728;SDS011;1372;47.956;7.830;2023-02-28T10:53:11;4.80;;;4.40;;
2728;SDS011;1372;47.956;7.830;2023-02-28T10:55:55;5.63;;;5.00;;
2728;SDS011;1372;47.956;7.830;2023-02-28T11:28:41;5.57;;;5.03;;
2728;SDS011;1372;47.956;7.830;2023-02-28T11:31:15;6.83;;;5.03;;
2728;SDS011;1372;47.956;7.830;2023-02-28T11:33:49;10.53;;;4.80;;
2728;SDS011;1372;47.956;7.830;2023-02-28T11:36:23;5.83;;;5.23;;
2728;SDS011;1372;47.956;7.830;2023-02-28T11:38:54;7.90;;;5.60;;
2728;SDS011;1372;47.956;7.830;2023-02-28T11:41:34;5.70;;;5.10;;
2728;SDS011;1372;47.956;7.830;2023-02-28T12:02:59;8.10;;;5.03;;
2728;SDS011;1372;47.956;7.830;2023-02-28T12:05:38;6.87;;;5.30;;
2728;SDS011;1372;47.956;7.830;2023-02-28T12:08:18;5.50;;;5.00;;
2728;SDS011;1372;47.956;7.830;2023-02-28T12:11:04;6.40;;;4.83;;
2728;SDS011;1372;47.956;7.830;2023-02-28T12:13:45;7.03;;;6.13;;
2728;SDS011;1372;47.956;7.830;2023-02-28T12:16:29;6.37;;;5.73;;
2728;SDS011;1372;47.956;7.830;2023-02-28T12:19:21;7.37;;;6.23;;
2728;SDS011;1372;47.956;7.830;2023-02-28T12:28:03;8.17;;;7.33;;
2728;SDS011;1372;47.956;7.830;2023-02-28T12:30:35;6.87;;;6.27;;
2728;SDS011;1372;47.956;7.830;2023-02-28T12:33:11;7.43;;;6.73;;
2728;SDS011;1372;47.956;7.830;2023-02-28T12:35:47;9.73;;;8.73;;
2728;SDS011;1372;47.956;7.830;2023-02-28T12:38:22;7.47;;;6.70;;
2728;SDS011;1372;47.956;7.830;2023-02-28T12:40:56;6.77;;;6.07;;
2728;SDS011;1372;47.956;7.830;2023-02-28T12:43:30;7.53;;;6.10;;
2728;SDS011;1372;47.956;7.830;2023-02-28T12:46:05;8.30;;;7.60;;
2728;SDS011;1372;47.956;7.830;2023-02-28T12:48:40;8.30;;;6.70;;
2728;SDS011;1372;47.956;7.830;2023-02-28T12:51:15;6.40;;;5.80;;
2728;SDS011;1372;47.956;7.830;2023-02-28T12:53:57;7.90;;;6.70;;
2728;SDS011;1372;47.956;7.830;2023-02-28T12:56:38;11.80;;;7.03;;
2728;SDS011;1372;47.956;7.830;2023-02-28T12:59:19;8.00;;;6.03;;
2728;SDS011;1372;47.956;7.830;2023-02-28T13:05:44;8.60;;;6.37;;
2728;SDS011;1372;47.956;7.830;2023-02-28T13:11:33;6.60;;;5.90;;
2728;SDS011;1372;47.956;7.830;2023-02-28T13:17:10;7.60;;;6.03;;
2728;SDS011;1372;47.956;7.830;2023-02-28T13:19:43;9.10;;;8.20;;
2728;SDS011;1372;47.956;7.830;2023-02-28T13:22:18;7.80;;;7.03;;
2728;SDS011;1372;47.956;7.830;2023-02-28T13:38:15;6.83;;;5.70;;
2728;SDS011;1372;47.956;7.830;2023-02-28T13:44:13;6.93;;;6.20;;
2728;SDS011;1372;47.956;7.830;2023-02-28T13:49:52;7.17;;;5.73;;
2728;SDS011;1372;47.956;7.830;2023-02-28T13:52:22;8.37;;;6.77;;
2728;SDS011;1372;47.956;7.830;2023-02-28T13:54:54;7.57;;;6.30;;
2728;SDS011;1372;47.956;7.830;2023-02-28T13:57:48;7.37;;;5.90;;
2728;SDS011;1372;47.956;7.830;2023-02-28T14:00:48;8.60;;;7.70;;
2728;SDS011;1372;47.956;7.830;2023-02-28T14:03:46;8.20;;;7.17;;
2728;SDS011;1372;47.956;7.830;2023-02-28T14:06:47;8.17;;;6.80;;
2728;SDS011;1372;47.956;7.830;2023-02-28T14:09:19;7.97;;;6.87;;
2728;SDS011;1372;47.956;7.830;2023-02-28T14:11:53;7.10;;;5.83;;
2728;SDS011;1372;47.956;7.830;2023-02-28T14:17:24;10.30;;;7.43;;
2728;SDS011;1372;47.956;7.830;2023-02-28T14:19:55;10.40;;;7.27;;
2728;SDS011;1372;47.956;7.830;2023-02-28T14:22:41;8.40;;;6.77;;
2728;SDS011;1372;47.956;7.830;2023-02-28T14:25:22;7.97;;;6.87;;
2728;SDS011;1372;47.956;7.830;2023-02-28T14:28:04;7.67;;;6.60;;
2728;SDS011;1372;47.956;7.830;2023-02-28T14:30:52;7.43;;;6.27;;
2728;SDS011;1372;47.956;7.830;2023-02-28T14:33:35;8.57;;;5.70;;
2728;SDS011;1372;47.956;7.830;2023-02-28T14:36:27;9.70;;;7.03;;
2728;SDS011;1372;47.956;7.830;2023-02-28T14:39:04;10.53;;;7.07;;
2728;SDS011;1372;47.956;7.830;2023-02-28T14:41:38;7.87;;;6.67;;
2728;SDS011;1372;47.956;7.830;2023-02-28T14:44:14;8.10;;;6.80;;
2728;SDS011;1372;47.956;7.830;2023-02-28T14:46:48;7.63;;;6.80;;
2728;SDS011;1372;47.956;7.830;2023-02-28T14:49:21;8.90;;;7.10;;
2728;SDS011;1372;47.956;7.830;2023-02-28T14:52:05;9.33;;;7.27;;
2728;SDS011;1372;47.956;7.830;2023-02-28T14:54:39;8.43;;;7.17;;
2728;SDS011;1372;47.956;7.830;2023-02-28T14:57:20;17.00;;;8.30;;
2728;SDS011;1372;47.956;7.830;2023-02-28T14:59:59;8.77;;;7.47;;
2728;SDS011;1372;47.956;7.830;2023-02-28T15:02:38;8.20;;;7.40;;
2728;SDS011;1372;47.956;7.830;2023-02-28T15:05:19;8.23;;;6.90;;
2728;SDS011;1372;47.956;7.830;2023-02-28T15:08:06;10.13;;;7.30;;
2728;SDS011;1372;47.956;7.830;2023-02-28T15:10:40;10.57;;;8.03;;
2728;SDS011;1372;47.956;7.830;2023-02-28T15:13:12;8.23;;;7.40;;
2728;SDS011;1372;47.956;7.830;2023-02-28T15:15:44;9.00;;;6.93;;
2728;SDS011;1372;47.956;7.830;2023-02-28T15:18:33;10.33;;;7.07;;
2728;SDS011;1372;47.956;7.830;2023-02-28T15:21:13;7.90;;;6.90;;
2728;SDS011;1372;47.956;7.830;2023-02-28T15:23:46;9.33;;;6.77;;
2728;SDS011;1372;47.956;7.830;2023-02-28T15:26:19;9.17;;;8.10;;
2728;SDS011;1372;47.956;7.830;2023-02-28T15:28:51;8.87;;;7.47;;
2728;SDS011;1372;47.956;7.830;2023-02-28T15:31:32;8.47;;;7.23;;
2728;SDS011;1372;47.956;7.830;2023-02-28T15:34:26;8.27;;;7.33;;
2728;SDS011;1372;47.956;7.830;2023-02-28T15:37:38;11.90;;;8.27;;
2728;SDS011;1372;47.956;7.830;2023-02-28T15:40:14;8.43;;;7.00;;
2728;SDS011;1372;47.956;7.830;2023-02-28T15:42:57;8.07;;;7.23;;
2728;SDS011;1372;47.956;7.830;2023-02-28T15:45:37;8.30;;;7.40;;
2728;SDS011;1372;47.956;7.830;2023-02-28T15:48:13;9.73;;;7.80;;
2728;SDS011;1372;47.956;7.830;2023-02-28T15:50:50;7.70;;;6.90;;
2728;SDS011;1372;47.956;7.830;2023-02-28T15:53:22;9.20;;;6.60;;
2728;SDS011;1372;47.956;7.830;2023-02-28T15:55:57;7.90;;;6.90;;
2728;SDS011;1372;47.956;7.830;2023-02-28T15:58:30;8.20;;;6.97;;
2728;SDS011;1372;47.956;7.830;2023-02-28T16:01:00;9.40;;;7.73;;
2728;SDS011;1372;47.956;7.830;2023-02-28T16:03:41;8.97;;;8.03;;
2728;SDS011;1372;47.956;7.830;2023-02-28T16:06:24;11.00;;;7.97;;
2728;SDS011;1372;47.956;7.830;2023-02-28T16:09:06;9.40;;;7.33;;
2728;SDS011;1372;47.956;7.830;2023-02-28T16:11:39;9.57;;;7.47;;
2728;SDS011;1372;47.956;7.830;2023-02-28T16:14:12;9.17;;;7.20;;
2728;SDS011;1372;47.956;7.830;2023-02-28T16:16:45;12.63;;;7.50;;
2728;SDS011;1372;47.956;7.830;2023-02-28T16:19:17;10.17;;;7.77;;
2728;SDS011;1372;47.956;7.830;2023-02-28T16:21:47;9.10;;;7.40;;
2728;SDS011;1372;47.956;7.830;2023-02-28T16:24:17;8.87;;;7.30;;
2728;SDS011;1372;47.956;7.830;2023-02-28T16:26:46;9.47;;;7.90;;
2728;SDS011;1372;47.956;7.830;2023-02-28T16:29:35;7.93;;;7.10;;
2728;SDS011;1372;47.956;7.830;2023-02-28T16:32:05;8.10;;;7.30;;
2728;SDS011;1372;47.956;7.830;2023-02-28T16:34:34;9.27;;;7.90;;
2728;SDS011;1372;47.956;7.830;2023-02-28T16:37:07;8.83;;;7.13;;
2728;SDS011;1372;47.956;7.830;2023-02-28T16:39:52;11.50;;;7.00;;
2728;SDS011;1372;47.956;7.830;2023-02-28T16:42:22;9.77;;;7.43;;
2728;SDS011;1372;47.956;7.830;2023-02-28T16:44:54;7.90;;;6.87;;
2728;SDS011;1372;47.956;7.830;2023-02-28T16:47:27;8.93;;;7.60;;
2728;SDS011;1372;47.956;7.830;2023-02-28T16:49:58;8.60;;;7.60;;
2728;SDS011;1372;47.956;7.830;2023-02-28T16:52:29;10.60;;;8.07;;
2728;SDS011;1372;47.956;7.830;2023-02-28T16:54:58;7.50;;;6.60;;
2728;SDS011;1372;47.956;7.830;2023-02-28T16:57:27;7.47;;;6.60;;
2728;SDS011;1372;47.956;7.830;2023-02-28T16:59:57;8.70;;;7.47;;
2728;SDS011;1372;47.956;7.830;2023-02-28T17:02:26;12.37;;;8.60;;
2728;SDS011;1372;47.956;7.830;2023-02-28T17:04:55;10.63;;;6.93;;
2728;SDS011;1372;47.956;7.830;2023-02-28T17:07:24;8.63;;;7.30;;
2728;SDS011;1372;47.956;7.830;2023-02-28T17:09:55;8.33;;;7.20;;
2728;SDS011;1372;47.956;7.830;2023-02-28T17:12:26;12.57;;;8.50;;
2728;SDS011;1372;47.956;7.830;2023-02-28T17:14:56;7.00;;;6.30;;
2728;SDS011;1372;47.956;7.830;2023-02-28T17:17:25;8.17;;;6.90;;
2728;SDS011;1372;47.956;7.830;2023-02-28T17:19:55;9.20;;;6.60;;
2728;SDS011;1372;47.956;7.830;2023-02-28T17:22:29;7.27;;;6.43;;
2728;SDS011;1372;47.956;7.830;2023-02-28T17:25:00;9.00;;;6.50;;
2728;SDS011;1372;47.956;7.830;2023-02-28T17:27:29;7.90;;;5.80;;
2728;SDS011;1372;47.956;7.830;2023-02-28T17:30:01;10.73;;;8.50;;
2728;SDS011;1372;47.956;7.830;2023-02-28T17:32:32;10.77;;;7.23;;
2728;SDS011;1372;47.956;7.830;2023-02-28T17:35:01;8.67;;;7.27;;
2728;SDS011;1372;47.956;7.830;2023-02-28T17:37:31;14.07;;;9.80;;
2728;SDS011;1372;47.956;7.830;2023-02-28T17:40:01;8.60;;;7.10;;
2728;SDS011;1372;47.956;7.830;2023-02-28T17:42:31;9.33;;;7.40;;
2728;SDS011;1372;47.956;7.830;2023-02-28T17:45:03;12.40;;;8.80;;
2728;SDS011;1372;47.956;7.830;2023-02-28T17:47:33;14.43;;;10.60;;
2728;SDS011;1372;47.956;7.830;2023-02-28T17:50:02;23.00;;;14.83;;
2728;SDS011;1372;47.956;7.830;2023-02-28T17:52:34;10.63;;;9.30;;
2728;SDS011;1372;47.956;7.830;2023-02-28T17:55:05;21.30;;;12.83;;
2728;SDS011;1372;47.956;7.830;2023-02-28T17:57:35;15.53;;;13.07;;
2728;SDS011;1372;47.956;7.830;2023-02-28T18:00:04;16.20;;;11.97;;
2728;SDS011;1372;47.956;7.830;2023-02-28T18:02:34;11.83;;;9.80;;
2728;SDS011;1372;47.956;7.830;2023-02-28T18:05:04;12.07;;;10.07;;
2728;SDS011;1372;47.956;7.830;2023-02-28T18:07:34;11.83;;;8.83;;
2728;SDS011;1372;47.956;7.830;2023-02-28T18:10:06;19.40;;;17.37;;
2728;SDS011;1372;47.956;7.830;2023-02-28T18:12:42;13.17;;;11.20;;
2728;SDS011;1372;47.956;7.830;2023-02-28T18:15:10;12.10;;;9.63;;
2728;SDS011;1372;47.956;7.830;2023-02-28T18:17:39;11.00;;;9.33;;
2728;SDS011;1372;47.956;7.830;2023-02-28T18:20:09;13.53;;;9.00;;
2728;SDS011;1372;47.956;7.830;2023-02-28T18:22:40;11.70;;;9.43;;